sensor_id;sensor_type;location;lat;lon;timestamp;P1;durP1;ratioP1;P2;durP2;ratioP2
4448;SDS011;2237;51.870;6.160;2023-06-24T00:02:15;6.22;;;3.80;;
4448;SDS011;2237;51.870;6.160;2023-06-24T00:04:42;5.22;;;3.53;;
4448;SDS011;2237;51.870;6.160;2023-06-24T00:07:08;5.35;;;3.50;;
4448;SDS011;2237;51.870;6.160;2023-06-24T00:09:35;8.32;;;3.95;;
4448;SDS011;2237;51.870;6.160;2023-06-24T00:12:02;8.63;;;4.28;;
4448;SDS011;2237;51.870;6.160;2023-06-24T00:14:28;6.40;;;3.88;;
4448;SDS011;2237;51.870;6.160;2023-06-24T00:16:55;7.07;;;4.43;;
4448;SDS011;2237;51.870;6.160;2023-06-24T00:19:25;10.23;;;4.82;;
4448;SDS011;2237;51.870;6.160;2023-06-24T00:21:53;9.68;;;4.60;;
4448;SDS011;2237;51.870;6.160;2023-06-24T00:24:20;8.10;;;5.28;;
4448;SDS011;2237;51.870;6.160;2023-06-24T00:26:52;7.63;;;4.80;;
4448;SDS011;2237;51.870;6.160;2023-06-24T00:29:19;10.27;;;5.60;;
4448;SDS011;2237;51.870;6.160;2023-06-24T00:31:45;7.75;;;5.40;;
4448;SDS011;2237;51.870;6.160;2023-06-24T00:34:12;7.97;;;5.50;;
4448;SDS011;2237;51.870;6.160;2023-06-24T00:36:38;9.80;;;5.63;;
4448;SDS011;2237;51.870;6.160;2023-06-24T00:39:05;8.80;;;6.15;;
4448;SDS011;2237;51.870;6.160;2023-06-24T00:41:32;11.68;;;7.10;;
4448;SDS011;2237;51.870;6.160;2023-06-24T00:43:59;10.88;;;7.63;;
4448;SDS011;2237;51.870;6.160;2023-06-24T00:46:27;14.63;;;8.07;;
4448;SDS011;2237;51.870;6.160;2023-06-24T00:48:55;12.38;;;7.55;;
4448;SDS011;2237;51.870;6.160;2023-06-24T00:51:22;12.05;;;7.35;;
4448;SDS011;2237;51.870;6.160;2023-06-24T00:53:58;12.60;;;7.68;;
4448;SDS011;2237;51.870;6.160;2023-06-24T00:56:29;13.20;;;7.15;;
4448;SDS011;2237;51.870;6.160;2023-06-24T00:58:57;14.00;;;7.28;;
4448;SDS011;2237;51.870;6.160;2023-06-24T01:01:28;13.95;;;7.95;;
4448;SDS011;2237;51.870;6.160;2023-06-24T01:04:02;14.05;;;8.05;;
4448;SDS011;2237;51.870;6.160;2023-06-24T01:06:29;12.77;;;7.47;;
4448;SDS011;2237;51.870;6.160;2023-06-24T01:08:56;13.48;;;7.75;;
4448;SDS011;2237;51.870;6.160;2023-06-24T01:11:24;13.68;;;8.82;;
4448;SDS011;2237;51.870;6.160;2023-06-24T01:13:50;13.73;;;7.95;;
4448;SDS011;2237;51.870;6.160;2023-06-24T01:16:23;12.00;;;7.35;;
4448;SDS011;2237;51.870;6.160;2023-06-24T01:19:00;13.32;;;7.72;;
4448;SDS011;2237;51.870;6.160;2023-06-24T01:21:54;12.38;;;7.88;;
4448;SDS011;2237;51.870;6.160;2023-06-24T01:24:31;13.50;;;8.45;;
4448;SDS011;2237;51.870;6.160;2023-06-24T01:29:52;12.52;;;8.35;;
4448;SDS011;2237;51.870;6.160;2023-06-24T01:32:26;12.85;;;8.07;;
4448;SDS011;2237;51.870;6.160;2023-06-24T01:35:02;11.23;;;7.53;;
4448;SDS011;2237;51.870;6.160;2023-06-24T01:37:50;13.45;;;7.28;;
4448;SDS011;2237;51.870;6.160;2023-06-24T01:42:53;10.73;;;6.75;;
4448;SDS011;2237;51.870;6.160;2023-06-24T01:45:30;10.07;;;6.78;;
4448;SDS011;2237;51.870;6.160;2023-06-24T01:48:14;10.00;;;6.18;;
4448;SDS011;2237;51.870;6.160;2023-06-24T01:53:09;10.80;;;6.78;;
4448;SDS011;2237;51.870;6.160;2023-06-24T01:55:40;10.68;;;6.32;;
4448;SDS011;2237;51.870;6.160;2023-06-24T01:58:08;8.63;;;6.07;;
4448;SDS011;2237;51.870;6.160;2023-06-24T02:00:37;10.45;;;6.13;;
4448;SDS011;2237;51.870;6.160;2023-06-24T02:03:05;10.93;;;6.63;;
4448;SDS011;2237;51.870;6.160;2023-06-24T02:05:33;11.45;;;6.80;;
4448;SDS011;2237;51.870;6.160;2023-06-24T02:08:02;12.32;;;6.47;;
4448;SDS011;2237;51.870;6.160;2023-06-24T02:10:30;10.43;;;6.63;;
4448;SDS011;2237;51.870;6.160;2023-06-24T02:12:57;11.65;;;6.80;;
4448;SDS011;2237;51.870;6.160;2023-06-24T02:15:25;11.63;;;6.93;;
4448;SDS011;2237;51.870;6.160;2023-06-24T02:17:54;12.18;;;7.13;;
4448;SDS011;2237;51.870;6.160;2023-06-24T02:20:23;10.73;;;6.70;;
4448;SDS011;2237;51.870;6.160;2023-06-24T02:22:53;10.88;;;6.55;;
4448;SDS011;2237;51.870;6.160;2023-06-24T02:25:21;11.73;;;7.20;;
4448;SDS011;2237;51.870;6.160;2023-06-24T02:27:48;11.20;;;6.72;;
4448;SDS011;2237;51.870;6.160;2023-06-24T02:30:15;10.48;;;6.68;;
4448;SDS011;2237;51.870;6.160;2023-06-24T02:32:42;11.15;;;7.25;;
4448;SDS011;2237;51.870;6.160;2023-06-24T02:35:09;9.23;;;5.35;;
4448;SDS011;2237;51.870;6.160;2023-06-24T02:37:35;12.25;;;6.93;;
4448;SDS011;2237;51.870;6.160;2023-06-24T02:40:02;11.27;;;7.25;;
4448;SDS011;2237;51.870;6.160;2023-06-24T02:42:31;11.45;;;7.35;;
4448;SDS011;2237;51.870;6.160;2023-06-24T02:44:57;12.57;;;7.00;;
4448;SDS011;2237;51.870;6.160;2023-06-24T02:47:24;10.98;;;7.50;;
4448;SDS011;2237;51.870;6.160;2023-06-24T02:49:51;11.68;;;7.13;;
4448;SDS011;2237;51.870;6.160;2023-06-24T02:52:20;12.57;;;7.47;;
4448;SDS011;2237;51.870;6.160;2023-06-24T02:54:46;12.43;;;7.72;;
4448;SDS011;2237;51.870;6.160;2023-06-24T02:57:13;12.85;;;8.38;;
4448;SDS011;2237;51.870;6.160;2023-06-24T02:59:41;13.98;;;8.23;;
4448;SDS011;2237;51.870;6.160;2023-06-24T03:02:08;11.45;;;7.43;;
4448;SDS011;2237;51.870;6.160;2023-06-24T03:04:34;12.32;;;8.30;;
4448;SDS011;2237;51.870;6.160;2023-06-24T03:07:01;14.93;;;8.07;;
4448;SDS011;2237;51.870;6.160;2023-06-24T03:09:31;12.98;;;7.13;;
4448;SDS011;2237;51.870;6.160;2023-06-24T03:12:00;13.98;;;8.48;;
4448;SDS011;2237;51.870;6.160;2023-06-24T03:14:26;12.68;;;7.82;;
4448;SDS011;2237;51.870;6.160;2023-06-24T03:16:53;13.20;;;7.93;;
4448;SDS011;2237;51.870;6.160;2023-06-24T03:19:19;11.63;;;7.63;;
4448;SDS011;2237;51.870;6.160;2023-06-24T03:21:45;12.93;;;8.63;;
4448;SDS011;2237;51.870;6.160;2023-06-24T03:24:12;11.85;;;7.53;;
4448;SDS011;2237;51.870;6.160;2023-06-24T03:26:39;12.23;;;8.43;;
4448;SDS011;2237;51.870;6.160;2023-06-24T03:29:08;12.45;;;7.45;;
4448;SDS011;2237;51.870;6.160;2023-06-24T03:31:35;10.95;;;7.50;;
4448;SDS011;2237;51.870;6.160;2023-06-24T03:34:01;13.43;;;7.32;;
4448;SDS011;2237;51.870;6.160;2023-06-24T03:36:28;11.40;;;7.78;;
4448;SDS011;2237;51.870;6.160;2023-06-24T03:38:54;13.65;;;7.90;;
4448;SDS011;2237;51.870;6.160;2023-06-24T03:41:21;11.85;;;7.28;;
4448;SDS011;2237;51.870;6.160;2023-06-24T03:43:48;13.93;;;7.88;;
4448;SDS011;2237;51.870;6.160;2023-06-24T03:46:14;14.57;;;8.30;;
4448;SDS011;2237;51.870;6.160;2023-06-24T03:48:41;12.40;;;7.47;;
4448;SDS011;2237;51.870;6.160;2023-06-24T03:51:07;14.13;;;7.80;;
4448;SDS011;2237;51.870;6.160;2023-06-24T03:53:34;11.52;;;7.97;;
4448;SDS011;2237;51.870;6.160;2023-06-24T03:56:00;13.02;;;7.97;;
4448;SDS011;2237;51.870;6.160;2023-06-24T03:58:27;12.55;;;7.78;;
4448;SDS011;2237;51.870;6.160;2023-06-24T04:00:53;14.98;;;8.10;;
4448;SDS011;2237;51.870;6.160;2023-06-24T04:03:23;12.35;;;7.75;;
4448;SDS011;2237;51.870;6.160;2023-06-24T04:05:53;13.18;;;8.13;;
4448;SDS011;2237;51.870;6.160;2023-06-24T04:08:21;14.52;;;7.97;;
4448;SDS011;2237;51.870;6.160;2023-06-24T04:10:48;14.15;;;8.20;;
4448;SDS011;2237;51.870;6.160;2023-06-24T04:13:14;12.10;;;7.80;;
4448;SDS011;2237;51.870;6.160;2023-06-24T04:15:41;15.02;;;8.10;;
4448;SDS011;2237;51.870;6.160;2023-06-24T04:18:07;12.38;;;8.15;;
4448;SDS011;2237;51.870;6.160;2023-06-24T04:20:34;11.88;;;8.18;;
4448;SDS011;2237;51.870;6.160;2023-06-24T04:23:03;12.10;;;7.65;;
4448;SDS011;2237;51.870;6.160;2023-06-24T04:25:31;10.25;;;7.00;;
4448;SDS011;2237;51.870;6.160;2023-06-24T04:27:57;13.27;;;7.68;;
4448;SDS011;2237;51.870;6.160;2023-06-24T04:30:24;11.07;;;6.97;;
4448;SDS011;2237;51.870;6.160;2023-06-24T04:32:50;9.98;;;6.65;;
4448;SDS011;2237;51.870;6.160;2023-06-24T04:35:17;10.57;;;6.60;;
4448;SDS011;2237;51.870;6.160;2023-06-24T04:37:43;13.02;;;6.65;;
4448;SDS011;2237;51.870;6.160;2023-06-24T04:40:10;11.45;;;6.38;;
4448;SDS011;2237;51.870;6.160;2023-06-24T04:42:36;10.93;;;6.05;;
4448;SDS011;2237;51.870;6.160;2023-06-24T04:45:03;11.68;;;6.85;;
4448;SDS011;2237;51.870;6.160;2023-06-24T04:47:31;10.90;;;6.18;;
4448;SDS011;2237;51.870;6.160;2023-06-24T04:49:57;10.02;;;6.20;;
4448;SDS011;2237;51.870;6.160;2023-06-24T04:52:24;10.15;;;6.15;;
4448;SDS011;2237;51.870;6.160;2023-06-24T04:54:50;12.02;;;6.78;;
4448;SDS011;2237;51.870;6.160;2023-06-24T04:57:23;12.90;;;7.40;;
4448;SDS011;2237;51.870;6.160;2023-06-24T04:59:52;10.55;;;6.88;;
4448;SDS011;2237;51.870;6.160;2023-06-24T05:02:19;9.85;;;6.82;;
4448;SDS011;2237;51.870;6.160;2023-06-24T05:04:45;10.07;;;6.35;;
4448;SDS011;2237;51.870;6.160;2023-06-24T05:07:11;9.43;;;6.47;;
4448;SDS011;2237;51.870;6.160;2023-06-24T05:09:38;9.75;;;6.22;;
4448;SDS011;2237;51.870;6.160;2023-06-24T05:12:05;13.07;;;7.05;;
4448;SDS011;2237;51.870;6.160;2023-06-24T05:14:35;11.38;;;6.90;;
4448;SDS011;2237;51.870;6.160;2023-06-24T05:17:05;11.93;;;7.20;;
4448;SDS011;2237;51.870;6.160;2023-06-24T05:19:32;13.35;;;7.45;;
4448;SDS011;2237;51.870;6.160;2023-06-24T05:21:58;15.50;;;7.82;;
4448;SDS011;2237;51.870;6.160;2023-06-24T05:24:25;13.45;;;7.95;;
4448;SDS011;2237;51.870;6.160;2023-06-24T05:26:51;12.45;;;7.60;;
4448;SDS011;2237;51.870;6.160;2023-06-24T05:29:18;14.52;;;8.55;;
4448;SDS011;2237;51.870;6.160;2023-06-24T05:31:44;20.50;;;8.73;;
4448;SDS011;2237;51.870;6.160;2023-06-24T05:34:12;14.43;;;8.75;;
4448;SDS011;2237;51.870;6.160;2023-06-24T05:36:38;12.60;;;8.45;;
4448;SDS011;2237;51.870;6.160;2023-06-24T05:39:05;15.63;;;8.50;;
4448;SDS011;2237;51.870;6.160;2023-06-24T05:41:34;17.08;;;9.10;;
4448;SDS011;2237;51.870;6.160;2023-06-24T05:44:06;17.20;;;9.00;;
4448;SDS011;2237;51.870;6.160;2023-06-24T05:46:35;15.38;;;8.20;;
4448;SDS011;2237;51.870;6.160;2023-06-24T05:49:01;13.32;;;8.27;;
4448;SDS011;2237;51.870;6.160;2023-06-24T05:51:28;14.57;;;8.68;;
4448;SDS011;2237;51.870;6.160;2023-06-24T05:53:55;15.48;;;8.98;;
4448;SDS011;2237;51.870;6.160;2023-06-24T05:56:21;12.88;;;8.98;;
4448;SDS011;2237;51.870;6.160;2023-06-24T05:58:48;14.45;;;8.30;;
4448;SDS011;2237;51.870;6.160;2023-06-24T06:01:15;16.50;;;8.85;;
4448;SDS011;2237;51.870;6.160;2023-06-24T06:03:42;14.55;;;8.40;;
4448;SDS011;2237;51.870;6.160;2023-06-24T06:06:08;13.65;;;9.13;;
4448;SDS011;2237;51.870;6.160;2023-06-24T06:08:35;14.00;;;8.38;;
4448;SDS011;2237;51.870;6.160;2023-06-24T06:11:01;10.93;;;6.88;;
4448;SDS011;2237;51.870;6.160;2023-06-24T06:13:31;14.20;;;6.80;;
4448;SDS011;2237;51.870;6.160;2023-06-24T06:15:57;12.20;;;6.45;;
4448;SDS011;2237;51.870;6.160;2023-06-24T06:18:24;8.45;;;5.15;;
4448;SDS011;2237;51.870;6.160;2023-06-24T06:20:50;7.38;;;4.20;;
4448;SDS011;2237;51.870;6.160;2023-06-24T06:23:17;8.85;;;4.00;;
4448;SDS011;2237;51.870;6.160;2023-06-24T06:25:43;9.13;;;4.07;;
4448;SDS011;2237;51.870;6.160;2023-06-24T06:28:12;6.70;;;4.10;;
4448;SDS011;2237;51.870;6.160;2023-06-24T06:30:39;9.77;;;5.13;;
4448;SDS011;2237;51.870;6.160;2023-06-24T06:33:05;7.72;;;3.83;;
4448;SDS011;2237;51.870;6.160;2023-06-24T06:35:31;6.47;;;4.25;;
4448;SDS011;2237;51.870;6.160;2023-06-24T06:37:58;9.82;;;4.70;;
4448;SDS011;2237;51.870;6.160;2023-06-24T06:40:25;8.80;;;3.97;;
4448;SDS011;2237;51.870;6.160;2023-06-24T06:42:53;7.45;;;4.47;;
4448;SDS011;2237;51.870;6.160;2023-06-24T06:45:19;7.28;;;3.70;;
4448;SDS011;2237;51.870;6.160;2023-06-24T06:47:46;8.15;;;4.18;;
4448;SDS011;2237;51.870;6.160;2023-06-24T06:50:12;7.15;;;4.45;;
4448;SDS011;2237;51.870;6.160;2023-06-24T06:52:39;6.90;;;3.95;;
4448;SDS011;2237;51.870;6.160;2023-06-24T06:55:05;9.13;;;4.50;;
4448;SDS011;2237;51.870;6.160;2023-06-24T06:57:32;7.32;;;3.92;;
4448;SDS011;2237;51.870;6.160;2023-06-24T06:59:58;9.27;;;3.97;;
4448;SDS011;2237;51.870;6.160;2023-06-24T07:02:24;6.28;;;4.15;;
4448;SDS011;2237;51.870;6.160;2023-06-24T07:04:51;7.53;;;4.00;;
4448;SDS011;2237;51.870;6.160;2023-06-24T07:07:17;7.38;;;4.28;;
4448;SDS011;2237;51.870;6.160;2023-06-24T07:09:44;6.78;;;3.58;;
4448;SDS011;2237;51.870;6.160;2023-06-24T07:12:12;9.73;;;4.43;;
4448;SDS011;2237;51.870;6.160;2023-06-24T07:14:39;7.70;;;3.78;;
4448;SDS011;2237;51.870;6.160;2023-06-24T07:17:06;7.07;;;4.10;;
4448;SDS011;2237;51.870;6.160;2023-06-24T07:19:33;14.25;;;4.13;;
4448;SDS011;2237;51.870;6.160;2023-06-24T07:22:00;9.25;;;3.08;;
4448;SDS011;2237;51.870;6.160;2023-06-24T07:24:26;6.25;;;3.53;;
4448;SDS011;2237;51.870;6.160;2023-06-24T07:26:53;8.18;;;3.95;;
4448;SDS011;2237;51.870;6.160;2023-06-24T07:29:19;7.65;;;3.40;;
4448;SDS011;2237;51.870;6.160;2023-06-24T07:31:45;5.70;;;3.75;;
4448;SDS011;2237;51.870;6.160;2023-06-24T07:34:12;4.70;;;2.83;;
4448;SDS011;2237;51.870;6.160;2023-06-24T07:36:38;9.90;;;3.20;;
4448;SDS011;2237;51.870;6.160;2023-06-24T07:39:05;6.20;;;2.90;;
4448;SDS011;2237;51.870;6.160;2023-06-24T07:41:32;5.38;;;3.20;;
4448;SDS011;2237;51.870;6.160;2023-06-24T07:43:58;8.40;;;3.67;;
4448;SDS011;2237;51.870;6.160;2023-06-24T07:46:25;7.80;;;3.38;;
4448;SDS011;2237;51.870;6.160;2023-06-24T07:48:53;7.68;;;3.20;;
4448;SDS011;2237;51.870;6.160;2023-06-24T07:51:20;7.93;;;3.67;;
4448;SDS011;2237;51.870;6.160;2023-06-24T07:53:46;10.82;;;3.47;;
4448;SDS011;2237;51.870;6.160;2023-06-24T07:56:13;6.63;;;3.60;;
4448;SDS011;2237;51.870;6.160;2023-06-24T07:58:39;6.57;;;3.70;;
4448;SDS011;2237;51.870;6.160;2023-06-24T08:01:06;7.15;;;3.35;;
4448;SDS011;2237;51.870;6.160;2023-06-24T08:03:33;5.38;;;3.42;;
4448;SDS011;2237;51.870;6.160;2023-06-24T08:06:00;6.28;;;3.15;;
4448;SDS011;2237;51.870;6.160;2023-06-24T08:08:27;5.97;;;3.10;;
4448;SDS011;2237;51.870;6.160;2023-06-24T08:10:53;5.55;;;2.53;;
4448;SDS011;2237;51.870;6.160;2023-06-24T08:13:20;4.10;;;2.60;;
4448;SDS011;2237;51.870;6.160;2023-06-24T08:15:46;5.07;;;2.90;;
4448;SDS011;2237;51.870;6.160;2023-06-24T08:18:13;4.47;;;2.60;;
4448;SDS011;2237;51.870;6.160;2023-06-24T08:20:39;6.07;;;2.83;;
4448;SDS011;2237;51.870;6.160;2023-06-24T08:23:06;5.05;;;2.63;;
4448;SDS011;2237;51.870;6.160;2023-06-24T08:25:32;5.95;;;3.15;;
4448;SDS011;2237;51.870;6.160;2023-06-24T08:27:59;5.95;;;2.88;;
4448;SDS011;2237;51.870;6.160;2023-06-24T08:30:26;4.20;;;2.83;;
4448;SDS011;2237;51.870;6.160;2023-06-24T08:32:52;5.78;;;2.58;;
4448;SDS011;2237;51.870;6.160;2023-06-24T08:35:19;5.25;;;3.33;;
4448;SDS011;2237;51.870;6.160;2023-06-24T08:37:45;6.57;;;2.92;;
4448;SDS011;2237;51.870;6.160;2023-06-24T08:40:11;4.85;;;2.75;;
4448;SDS011;2237;51.870;6.160;2023-06-24T08:42:38;7.07;;;3.92;;
4448;SDS011;2237;51.870;6.160;2023-06-24T08:45:05;7.00;;;3.20;;
4448;SDS011;2237;51.870;6.160;2023-06-24T08:47:31;8.60;;;3.90;;
4448;SDS011;2237;51.870;6.160;2023-06-24T08:50:11;6.63;;;3.33;;
4448;SDS011;2237;51.870;6.160;2023-06-24T08:52:41;10.13;;;4.07;;
4448;SDS011;2237;51.870;6.160;2023-06-24T08:55:12;7.07;;;3.33;;
4448;SDS011;2237;51.870;6.160;2023-06-24T09:00:08;6.47;;;2.78;;
4448;SDS011;2237;51.870;6.160;2023-06-24T09:02:37;8.20;;;3.35;;
4448;SDS011;2237;51.870;6.160;2023-06-24T09:05:07;9.15;;;4.00;;
4448;SDS011;2237;51.870;6.160;2023-06-24T09:07:34;7.03;;;3.80;;
4448;SDS011;2237;51.870;6.160;2023-06-24T09:10:00;4.32;;;2.50;;
4448;SDS011;2237;51.870;6.160;2023-06-24T09:12:27;7.35;;;3.70;;
4448;SDS011;2237;51.870;6.160;2023-06-24T09:14:57;8.32;;;4.63;;
4448;SDS011;2237;51.870;6.160;2023-06-24T09:17:23;6.80;;;4.05;;
4448;SDS011;2237;51.870;6.160;2023-06-24T09:19:50;7.60;;;3.58;;
4448;SDS011;2237;51.870;6.160;2023-06-24T09:22:17;7.40;;;4.43;;
4448;SDS011;2237;51.870;6.160;2023-06-24T09:24:45;9.75;;;5.22;;
4448;SDS011;2237;51.870;6.160;2023-06-24T09:27:14;7.28;;;4.25;;
4448;SDS011;2237;51.870;6.160;2023-06-24T09:29:42;6.18;;;3.95;;
4448;SDS011;2237;51.870;6.160;2023-06-24T09:32:09;5.70;;;3.40;;
4448;SDS011;2237;51.870;6.160;2023-06-24T09:34:39;6.72;;;3.85;;
4448;SDS011;2237;51.870;6.160;2023-06-24T09:37:05;6.53;;;3.60;;
4448;SDS011;2237;51.870;6.160;2023-06-24T09:39:35;7.22;;;3.35;;
4448;SDS011;2237;51.870;6.160;2023-06-24T09:42:06;5.32;;;2.45;;
4448;SDS011;2237;51.870;6.160;2023-06-24T09:44:34;2.85;;;1.98;;
4448;SDS011;2237;51.870;6.160;2023-06-24T09:47:00;3.42;;;1.85;;
4448;SDS011;2237;51.870;6.160;2023-06-24T09:49:27;5.25;;;2.05;;
4448;SDS011;2237;51.870;6.160;2023-06-24T09:51:54;3.35;;;1.80;;
4448;SDS011;2237;51.870;6.160;2023-06-24T09:54:24;3.83;;;1.92;;
4448;SDS011;2237;51.870;6.160;2023-06-24T09:56:57;6.90;;;2.72;;
4448;SDS011;2237;51.870;6.160;2023-06-24T09:59:26;5.65;;;2.20;;
4448;SDS011;2237;51.870;6.160;2023-06-24T10:01:53;4.90;;;2.20;;
4448;SDS011;2237;51.870;6.160;2023-06-24T10:04:21;3.90;;;1.90;;
4448;SDS011;2237;51.870;6.160;2023-06-24T10:06:50;3.58;;;1.90;;
4448;SDS011;2237;51.870;6.160;2023-06-24T10:09:17;4.78;;;1.58;;
4448;SDS011;2237;51.870;6.160;2023-06-24T10:11:45;3.25;;;1.70;;
4448;SDS011;2237;51.870;6.160;2023-06-24T10:14:16;4.72;;;2.22;;
4448;SDS011;2237;51.870;6.160;2023-06-24T10:16:44;2.65;;;1.83;;
4448;SDS011;2237;51.870;6.160;2023-06-24T10:19:10;3.03;;;1.55;;
4448;SDS011;2237;51.870;6.160;2023-06-24T10:21:52;2.65;;;1.52;;
4448;SDS011;2237;51.870;6.160;2023-06-24T10:27:02;2.40;;;1.33;;
4448;SDS011;2237;51.870;6.160;2023-06-24T10:29:38;4.13;;;1.30;;
4448;SDS011;2237;51.870;6.160;2023-06-24T10:32:06;2.80;;;1.55;;
4448;SDS011;2237;51.870;6.160;2023-06-24T10:34:46;1.67;;;1.10;;
4448;SDS011;2237;51.870;6.160;2023-06-24T10:39:50;6.18;;;1.70;;
4448;SDS011;2237;51.870;6.160;2023-06-24T10:44:54;3.10;;;1.80;;
4448;SDS011;2237;51.870;6.160;2023-06-24T10:47:22;2.72;;;1.75;;
4448;SDS011;2237;51.870;6.160;2023-06-24T10:49:49;4.80;;;1.92;;
4448;SDS011;2237;51.870;6.160;2023-06-24T10:52:18;5.75;;;1.88;;
4448;SDS011;2237;51.870;6.160;2023-06-24T10:54:46;3.15;;;1.65;;
4448;SDS011;2237;51.870;6.160;2023-06-24T10:57:14;4.53;;;2.38;;
4448;SDS011;2237;51.870;6.160;2023-06-24T10:59:41;3.95;;;2.28;;
4448;SDS011;2237;51.870;6.160;2023-06-24T11:02:09;4.35;;;2.10;;
4448;SDS011;2237;51.870;6.160;2023-06-24T11:04:49;5.60;;;2.40;;
4448;SDS011;2237;51.870;6.160;2023-06-24T11:07:17;3.45;;;2.17;;
4448;SDS011;2237;51.870;6.160;2023-06-24T11:09:48;4.05;;;2.28;;
4448;SDS011;2237;51.870;6.160;2023-06-24T11:12:15;3.47;;;2.35;;
4448;SDS011;2237;51.870;6.160;2023-06-24T11:14:42;6.15;;;2.67;;
4448;SDS011;2237;51.870;6.160;2023-06-24T11:17:09;3.80;;;2.45;;
4448;SDS011;2237;51.870;6.160;2023-06-24T11:19:35;4.95;;;2.45;;
4448;SDS011;2237;51.870;6.160;2023-06-24T11:22:05;4.93;;;3.17;;
4448;SDS011;2237;51.870;6.160;2023-06-24T11:24:33;5.28;;;2.67;;
4448;SDS011;2237;51.870;6.160;2023-06-24T11:27:01;4.75;;;2.58;;
4448;SDS011;2237;51.870;6.160;2023-06-24T11:29:28;5.18;;;2.80;;
4448;SDS011;2237;51.870;6.160;2023-06-24T11:31:56;3.60;;;2.15;;
4448;SDS011;2237;51.870;6.160;2023-06-24T11:34:22;3.97;;;2.47;;
4448;SDS011;2237;51.870;6.160;2023-06-24T11:36:49;4.85;;;3.05;;
4448;SDS011;2237;51.870;6.160;2023-06-24T11:39:23;4.45;;;2.65;;
4448;SDS011;2237;51.870;6.160;2023-06-24T11:41:51;5.07;;;2.45;;
4448;SDS011;2237;51.870;6.160;2023-06-24T11:44:18;3.72;;;2.47;;
4448;SDS011;2237;51.870;6.160;2023-06-24T11:46:49;4.22;;;2.08;;
4448;SDS011;2237;51.870;6.160;2023-06-24T11:49:16;4.18;;;2.63;;
4448;SDS011;2237;51.870;6.160;2023-06-24T11:51:46;3.83;;;2.20;;
4448;SDS011;2237;51.870;6.160;2023-06-24T11:54:15;3.88;;;2.40;;
4448;SDS011;2237;51.870;6.160;2023-06-24T11:56:43;4.13;;;2.47;;
4448;SDS011;2237;51.870;6.160;2023-06-24T11:59:23;4.35;;;2.72;;
4448;SDS011;2237;51.870;6.160;2023-06-24T12:01:56;4.13;;;2.60;;
4448;SDS011;2237;51.870;6.160;2023-06-24T12:04:27;4.30;;;2.70;;
4448;SDS011;2237;51.870;6.160;2023-06-24T12:09:21;4.65;;;2.80;;
4448;SDS011;2237;51.870;6.160;2023-06-24T12:11:48;4.07;;;2.30;;
4448;SDS011;2237;51.870;6.160;2023-06-24T12:14:15;4.78;;;3.28;;
4448;SDS011;2237;51.870;6.160;2023-06-24T12:16:41;4.93;;;2.90;;
4448;SDS011;2237;51.870;6.160;2023-06-24T12:19:08;3.83;;;2.50;;
4448;SDS011;2237;51.870;6.160;2023-06-24T12:21:35;4.45;;;3.10;;
4448;SDS011;2237;51.870;6.160;2023-06-24T12:24:02;3.38;;;2.33;;
4448;SDS011;2237;51.870;6.160;2023-06-24T12:26:29;7.88;;;2.17;;
4448;SDS011;2237;51.870;6.160;2023-06-24T12:28:55;3.65;;;2.33;;
4448;SDS011;2237;51.870;6.160;2023-06-24T12:31:24;3.30;;;2.17;;
4448;SDS011;2237;51.870;6.160;2023-06-24T12:33:51;6.43;;;2.60;;
4448;SDS011;2237;51.870;6.160;2023-06-24T12:36:18;5.50;;;2.22;;
4448;SDS011;2237;51.870;6.160;2023-06-24T12:38:45;3.92;;;2.15;;
4448;SDS011;2237;51.870;6.160;2023-06-24T12:41:11;4.35;;;2.35;;
4448;SDS011;2237;51.870;6.160;2023-06-24T12:43:37;5.05;;;2.90;;
4448;SDS011;2237;51.870;6.160;2023-06-24T12:46:04;3.67;;;2.25;;
4448;SDS011;2237;51.870;6.160;2023-06-24T12:48:30;3.72;;;2.63;;
4448;SDS011;2237;51.870;6.160;2023-06-24T12:50:57;3.83;;;2.80;;
4448;SDS011;2237;51.870;6.160;2023-06-24T12:53:23;4.07;;;2.55;;
4448;SDS011;2237;51.870;6.160;2023-06-24T12:55:49;7.43;;;2.42;;
4448;SDS011;2237;51.870;6.160;2023-06-24T12:58:19;5.93;;;2.72;;
4448;SDS011;2237;51.870;6.160;2023-06-24T13:00:48;3.53;;;2.20;;
4448;SDS011;2237;51.870;6.160;2023-06-24T13:03:15;4.22;;;2.60;;
4448;SDS011;2237;51.870;6.160;2023-06-24T13:05:41;4.43;;;2.80;;
4448;SDS011;2237;51.870;6.160;2023-06-24T13:08:08;4.95;;;2.47;;
4448;SDS011;2237;51.870;6.160;2023-06-24T13:10:37;3.45;;;2.00;;
4448;SDS011;2237;51.870;6.160;2023-06-24T13:13:04;4.10;;;2.25;;
4448;SDS011;2237;51.870;6.160;2023-06-24T13:15:31;4.68;;;2.40;;
4448;SDS011;2237;51.870;6.160;2023-06-24T13:17:58;4.97;;;2.30;;
4448;SDS011;2237;51.870;6.160;2023-06-24T13:20:24;5.25;;;2.22;;
4448;SDS011;2237;51.870;6.160;2023-06-24T13:22:51;4.57;;;2.50;;
4448;SDS011;2237;51.870;6.160;2023-06-24T13:25:18;5.05;;;2.45;;
4448;SDS011;2237;51.870;6.160;2023-06-24T13:27:44;3.75;;;2.25;;
4448;SDS011;2237;51.870;6.160;2023-06-24T13:30:12;4.90;;;2.50;;
4448;SDS011;2237;51.870;6.160;2023-06-24T13:32:41;4.90;;;2.47;;
4448;SDS011;2237;51.870;6.160;2023-06-24T13:35:08;3.25;;;2.17;;
4448;SDS011;2237;51.870;6.160;2023-06-24T13:37:34;4.00;;;2.38;;
4448;SDS011;2237;51.870;6.160;2023-06-24T13:40:01;3.42;;;2.40;;
4448;SDS011;2237;51.870;6.160;2023-06-24T13:42:28;3.00;;;2.20;;
4448;SDS011;2237;51.870;6.160;2023-06-24T13:44:55;3.33;;;2.17;;
4448;SDS011;2237;51.870;6.160;2023-06-24T13:47:21;6.43;;;2.33;;
4448;SDS011;2237;51.870;6.160;2023-06-24T13:49:49;2.60;;;1.83;;
4448;SDS011;2237;51.870;6.160;2023-06-24T13:52:15;4.10;;;2.03;;
4448;SDS011;2237;51.870;6.160;2023-06-24T13:54:41;3.88;;;2.17;;
4448;SDS011;2237;51.870;6.160;2023-06-24T13:57:08;3.38;;;2.38;;
4448;SDS011;2237;51.870;6.160;2023-06-24T13:59:34;3.28;;;2.03;;
4448;SDS011;2237;51.870;6.160;2023-06-24T14:02:01;3.40;;;2.20;;
4448;SDS011;2237;51.870;6.160;2023-06-24T14:04:28;4.40;;;2.30;;
4448;SDS011;2237;51.870;6.160;2023-06-24T14:06:54;3.75;;;2.13;;
4448;SDS011;2237;51.870;6.160;2023-06-24T14:09:21;3.38;;;2.13;;
4448;SDS011;2237;51.870;6.160;2023-06-24T14:11:47;3.85;;;2.38;;
4448;SDS011;2237;51.870;6.160;2023-06-24T14:14:14;4.07;;;2.60;;
4448;SDS011;2237;51.870;6.160;2023-06-24T14:16:40;3.53;;;2.28;;
4448;SDS011;2237;51.870;6.160;2023-06-24T14:19:06;2.83;;;2.30;;
4448;SDS011;2237;51.870;6.160;2023-06-24T14:21:33;4.03;;;2.30;;
4448;SDS011;2237;51.870;6.160;2023-06-24T14:24:01;2.70;;;2.10;;
4448;SDS011;2237;51.870;6.160;2023-06-24T14:26:41;5.20;;;2.42;;
4448;SDS011;2237;51.870;6.160;2023-06-24T14:29:07;3.35;;;2.63;;
4448;SDS011;2237;51.870;6.160;2023-06-24T14:31:34;3.42;;;2.70;;
4448;SDS011;2237;51.870;6.160;2023-06-24T14:34:00;4.57;;;2.75;;
4448;SDS011;2237;51.870;6.160;2023-06-24T14:36:26;2.85;;;2.33;;
4448;SDS011;2237;51.870;6.160;2023-06-24T14:38:53;3.42;;;2.67;;
4448;SDS011;2237;51.870;6.160;2023-06-24T14:41:19;3.20;;;2.60;;
4448;SDS011;2237;51.870;6.160;2023-06-24T14:43:46;3.42;;;2.40;;
4448;SDS011;2237;51.870;6.160;2023-06-24T14:46:12;3.38;;;2.67;;
4448;SDS011;2237;51.870;6.160;2023-06-24T14:48:38;4.32;;;2.75;;
4448;SDS011;2237;51.870;6.160;2023-06-24T14:51:05;3.35;;;2.50;;
4448;SDS011;2237;51.870;6.160;2023-06-24T14:53:32;3.50;;;2.95;;
4448;SDS011;2237;51.870;6.160;2023-06-24T14:55:58;3.10;;;2.63;;
4448;SDS011;2237;51.870;6.160;2023-06-24T14:58:25;3.53;;;2.60;;
4448;SDS011;2237;51.870;6.160;2023-06-24T15:00:51;3.13;;;2.88;;
4448;SDS011;2237;51.870;6.160;2023-06-24T15:03:17;2.78;;;2.50;;
4448;SDS011;2237;51.870;6.160;2023-06-24T15:05:44;3.25;;;2.95;;
4448;SDS011;2237;51.870;6.160;2023-06-24T15:08:10;3.78;;;2.70;;
4448;SDS011;2237;51.870;6.160;2023-06-24T15:10:37;3.25;;;2.70;;
4448;SDS011;2237;51.870;6.160;2023-06-24T15:13:03;5.20;;;2.85;;
4448;SDS011;2237;51.870;6.160;2023-06-24T15:15:31;3.33;;;3.03;;
4448;SDS011;2237;51.870;6.160;2023-06-24T15:17:58;3.22;;;2.78;;
4448;SDS011;2237;51.870;6.160;2023-06-24T15:20:26;5.38;;;2.65;;
4448;SDS011;2237;51.870;6.160;2023-06-24T15:22:52;2.70;;;2.50;;
4448;SDS011;2237;51.870;6.160;2023-06-24T15:25:19;3.13;;;2.90;;
4448;SDS011;2237;51.870;6.160;2023-06-24T15:27:45;5.80;;;3.08;;
4448;SDS011;2237;51.870;6.160;2023-06-24T15:30:11;3.80;;;2.85;;
4448;SDS011;2237;51.870;6.160;2023-06-24T15:32:38;3.05;;;2.75;;
4448;SDS011;2237;51.870;6.160;2023-06-24T15:35:05;3.63;;;2.70;;